Time;durP1;ratioP1;P1;durP2;ratioP2;P2;SDS_P1;SDS_P2;PMS_P1;PMS_P2;Temp;Humidity;BMP_temperature;BMP_pressure;BME280_temperature;BME280_humidity;BME280_pressure;Samples;Min_cycle;Max_cycle;Signal;HPM_P1;HPM_P2
2023/12/21 00:02:22;;;;;;;5.13;2.60;;;;;;;3.56;66.16;92609.44;2055442;70;20154;-87
2023/12/21 00:04:49;;;;;;;3.83;2.33;;;;;;;3.52;66.16;92579.19;2051529;70;20150;-86
2023/12/21 00:07:16;;;;;;;4.03;2.20;;;;;;;3.72;66.63;92607.28;2055713;70;20146;-87
2023/12/21 00:09:41;;;;;;;4.53;2.35;;;;;;;3.79;67.27;92612.03;2055743;69;20216;-83
2023/12/21 00:12:07;;;;;;;4.20;2.30;;;;;;;3.67;67.07;92606.22;2052676;70;20525;-83
2023/12/21 00:14:33;;;;;;;4.75;2.80;;;;;;;3.38;65.74;92600.28;2051020;70;20620;-85
2023/12/21 00:16:59;;;;;;;4.95;2.80;;;;;;;3.61;65.88;92599.38;2048315;70;20162;-82
2023/12/21 00:19:24;;;;;;;4.90;2.78;;;;;;;3.59;66.16;92588.81;2051489;70;20169;-83
2023/12/21 00:21:53;;;;;;;6.90;2.88;;;;;;;3.47;67.12;92593.34;2053816;70;20632;-83
2023/12/21 00:24:25;;;;;;;5.10;2.30;;;;;;;3.50;67.22;92587.41;2055124;70;20172;-85
2023/12/21 00:26:51;;;;;;;4.20;2.78;;;;;;;3.45;65.61;92582.06;2055204;70;20263;-83
2023/12/21 00:29:20;;;;;;;4.03;2.80;;;;;;;3.67;65.76;92583.94;2058840;70;20229;-83
2023/12/21 00:31:46;;;;;;;6.10;2.45;;;;;;;3.67;66.72;92580.41;2060150;69;20134;-82
2023/12/21 00:34:11;;;;;;;4.32;2.45;;;;;;;3.73;66.57;92575.34;2056290;70;20153;-84
2023/12/21 00:36:37;;;;;;;3.70;2.47;;;;;;;3.73;66.39;92570.50;2053737;70;20142;-80
2023/12/21 00:39:08;;;;;;;4.43;2.47;;;;;;;3.84;66.00;92580.44;2055531;69;20240;-82
2023/12/21 00:41:34;;;;;;;4.70;2.78;;;;;;;3.83;66.85;92567.81;2054605;70;20152;-84
2023/12/21 00:43:59;;;;;;;4.63;2.40;;;;;;;3.72;67.74;92573.88;2050194;70;20186;-84
2023/12/21 00:46:29;;;;;;;3.97;2.17;;;;;;;3.75;65.57;92583.84;2053919;70;20187;-81
2023/12/21 00:48:55;;;;;;;4.65;2.65;;;;;;;3.82;65.57;92575.44;2053340;70;20238;-82
2023/12/21 00:51:21;;;;;;;4.40;2.45;;;;;;;3.78;65.10;92569.53;2052485;70;20166;-82
2023/12/21 00:53:47;;;;;;;4.05;2.42;;;;;;;3.87;64.19;92570.22;2055168;70;20146;-80
2023/12/21 00:56:12;;;;;;;5.35;2.42;;;;;;;3.87;62.78;92545.88;2052204;70;20150;-81
2023/12/21 00:58:38;;;;;;;4.05;2.13;;;;;;;3.83;64.10;92539.97;2053805;69;20157;-81
2023/12/21 01:01:04;;;;;;;4.30;2.40;;;;;;;3.82;64.69;92535.72;2055026;69;20597;-82
2023/12/21 01:03:30;;;;;;;3.75;2.30;;;;;;;3.78;65.30;92529.81;2051482;70;20262;-80
2023/12/21 01:05:56;;;;;;;4.05;2.20;;;;;;;3.64;65.12;92542.56;2051504;70;20221;-81
2023/12/21 01:08:23;;;;;;;3.72;2.33;;;;;;;3.74;63.19;92541.34;2051343;70;20151;-83
2023/12/21 01:10:49;;;;;;;3.65;2.20;;;;;;;3.82;63.92;92538.50;2051315;70;20170;-82
2023/12/21 01:13:15;;;;;;;3.88;2.30;;;;;;;3.91;64.77;92542.69;2052368;70;20157;-82
2023/12/21 01:15:42;;;;;;;4.35;2.05;;;;;;;3.70;65.47;92541.03;2055113;70;20194;-82
2023/12/21 01:18:08;;;;;;;3.35;2.03;;;;;;;3.76;65.27;92546.38;2055239;70;20521;-79
2023/12/21 01:20:34;;;;;;;3.10;1.90;;;;;;;3.54;64.17;92520.19;2054350;70;20162;-80
2023/12/21 01:22:59;;;;;;;2.45;1.60;;;;;;;3.98;61.71;92550.22;2052534;70;20174;-81
2023/12/21 01:25:29;;;;;;;2.78;1.80;;;;;;;3.83;63.27;92540.72;2050922;70;20193;-80
2023/12/21 01:27:54;;;;;;;3.10;1.80;;;;;;;3.86;63.92;92541.63;2049770;70;20269;-79
2023/12/21 01:30:21;;;;;;;2.85;1.92;;;;;;;3.94;62.95;92538.75;2054277;69;20146;-82
2023/12/21 01:32:49;;;;;;;4.20;2.20;;;;;;;3.95;63.31;92534.69;2049671;70;20202;-82
2023/12/21 01:35:15;;;;;;;5.10;2.25;;;;;;;3.88;63.71;92521.56;2052159;70;20166;-81
2023/12/21 01:37:41;;;;;;;2.35;1.70;;;;;;;3.65;64.29;92514.16;2054977;70;20208;-81
2023/12/21 01:40:08;;;;;;;2.85;1.90;;;;;;;3.85;61.77;92536.63;2050585;70;20197;-83
2023/12/21 01:42:34;;;;;;;4.35;1.98;;;;;;;3.85;62.11;92556.88;2054817;69;20162;-82
2023/12/21 01:45:00;;;;;;;3.03;2.10;;;;;;;3.90;63.61;92527.31;2051379;70;20146;-81
2023/12/21 01:47:26;;;;;;;2.70;1.88;;;;;;;3.97;62.93;92523.69;2054636;69;20147;-82
2023/12/21 01:49:52;;;;;;;3.15;2.00;;;;;;;4.01;60.53;92537.97;2050809;70;20738;-81
2023/12/21 01:52:19;;;;;;;3.25;2.25;;;;;;;3.97;61.61;92541.16;2054668;70;20158;-83
2023/12/21 01:54:45;;;;;;;4.15;2.05;;;;;;;4.08;62.70;92531.59;2052551;70;20154;-83
2023/12/21 01:57:16;;;;;;;4.75;2.20;;;;;;;4.11;63.56;92543.63;2051230;70;20241;-83
2023/12/21 01:59:42;;;;;;;3.78;1.70;;;;;;;4.12;63.99;92543.03;2051243;70;20158;-82
2023/12/21 02:02:09;;;;;;;4.40;1.90;;;;;;;4.03;64.93;92521.41;2053805;70;20185;-83
2023/12/21 02:04:35;;;;;;;4.13;2.00;;;;;;;3.65;64.73;92525.28;2051053;70;20153;-82
2023/12/21 02:07:00;;;;;;;2.95;2.15;;;;;;;3.86;65.21;92538.84;2051223;70;20153;-83
2023/12/21 02:09:28;;;;;;;3.22;2.10;;;;;;;4.10;64.74;92545.66;2051225;70;20237;-84
2023/12/21 02:11:53;;;;;;;2.47;1.60;;;;;;;4.06;64.63;92534.19;2047902;70;20233;-83
2023/12/21 02:14:21;;;;;;;4.10;2.35;;;;;;;4.15;64.72;92538.38;2054781;70;20177;-82
2023/12/21 02:17:04;;;;;;;3.28;1.90;;;;;;;4.16;65.14;92534.28;2055249;70;20146;-82
2023/12/21 02:19:33;;;;;;;2.13;1.50;;;;;;;4.06;65.14;92521.00;2060081;69;20149;-81
2023/12/21 02:22:01;;;;;;;2.58;1.70;;;;;;;4.11;64.79;92513.69;2056082;69;20146;-81
2023/12/21 02:24:27;;;;;;;2.00;1.55;;;;;;;4.13;64.60;92493.66;2050938;70;20142;-83
2023/12/21 02:26:53;;;;;;;3.47;1.60;;;;;;;4.16;65.44;92489.69;2056946;69;20255;-81
2023/12/21 02:29:20;;;;;;;2.08;1.60;;;;;;;4.10;65.87;92489.22;2056165;69;20164;-82
2023/12/21 02:31:47;;;;;;;2.60;1.88;;;;;;;4.02;65.15;92484.44;2051521;70;20168;-83
2023/12/21 02:34:16;;;;;;;2.67;1.75;;;;;;;4.05;64.99;92474.22;2055355;70;20153;-81
2023/12/21 02:36:41;;;;;;;3.55;1.70;;;;;;;4.00;64.83;92495.44;2055416;69;20158;-80
2023/12/21 02:39:08;;;;;;;2.35;1.67;;;;;;;4.19;64.56;92494.84;2054622;69;20150;-82
2023/12/21 02:41:34;;;;;;;3.05;1.70;;;;;;;4.20;62.52;92487.97;2054963;70;20653;-80
2023/12/21 02:43:59;;;;;;;2.33;1.60;;;;;;;3.89;61.16;92478.47;2049923;70;20170;-81
2023/12/21 02:46:26;;;;;;;2.33;1.50;;;;;;;4.06;60.12;92484.03;2055396;70;20605;-83
2023/12/21 02:48:53;;;;;;;2.13;1.67;;;;;;;4.31;60.99;92506.25;2051810;70;20169;-81
2023/12/21 02:51:19;;;;;;;2.35;1.55;;;;;;;4.26;61.37;92494.03;2051758;70;20149;-81
2023/12/21 02:53:44;;;;;;;1.98;1.40;;;;;;;4.33;60.76;92492.47;2048170;70;20187;-83
2023/12/21 02:56:10;;;;;;;2.80;1.65;;;;;;;4.38;61.23;92482.38;2053028;70;20154;-82
2023/12/21 02:58:36;;;;;;;2.85;1.75;;;;;;;4.24;59.56;92488.28;2054797;70;20153;-81
2023/12/21 03:01:02;;;;;;;3.92;1.80;;;;;;;4.21;60.10;92492.22;2051298;70;20190;-80
2023/12/21 03:03:28;;;;;;;2.65;1.75;;;;;;;4.30;61.48;92480.41;2051464;70;20188;-82
2023/12/21 03:05:53;;;;;;;3.60;1.75;;;;;;;4.44;61.70;92480.06;2048693;70;20150;-81
2023/12/21 03:08:21;;;;;;;3.20;1.60;;;;;;;4.37;62.54;92486.50;2053081;70;20594;-82
2023/12/21 03:10:49;;;;;;;2.50;1.52;;;;;;;4.32;62.91;92480.59;2051029;70;20217;-81
2023/12/21 03:13:15;;;;;;;2.20;1.60;;;;;;;4.30;63.44;92491.56;2051593;69;20147;-81
2023/12/21 03:15:41;;;;;;;3.33;2.15;;;;;;;4.21;63.74;92481.06;2051714;70;20174;-80
2023/12/21 03:18:06;;;;;;;3.90;1.75;;;;;;;4.36;64.10;92476.66;2052484;70;20153;-80
2023/12/21 03:20:33;;;;;;;2.55;1.60;;;;;;;4.29;64.25;92487.31;2051680;70;20150;-79
2023/12/21 03:23:01;;;;;;;4.28;1.60;;;;;;;4.22;64.88;92479.06;2050693;70;20151;-81
2023/12/21 03:25:26;;;;;;;2.13;1.52;;;;;;;4.32;64.81;92475.00;2050927;70;20153;-81
2023/12/21 03:27:55;;;;;;;2.85;1.50;;;;;;;4.39;64.19;92476.22;2051542;70;20154;-82
2023/12/21 03:30:22;;;;;;;2.45;1.65;;;;;;;4.28;63.06;92473.94;2053680;70;20683;-82
2023/12/21 03:32:50;;;;;;;4.28;1.80;;;;;;;4.07;64.03;92472.31;2048738;70;20253;-81
2023/12/21 03:35:16;;;;;;;2.00;1.73;;;;;;;4.27;63.97;92470.44;2053717;70;20146;-80
2023/12/21 03:37:42;;;;;;;2.80;1.92;;;;;;;4.42;64.06;92461.13;2051451;70;20192;-81
2023/12/21 03:40:07;;;;;;;2.15;1.48;;;;;;;4.41;64.00;92458.94;2053568;70;20225;-83
2023/12/21 03:42:33;;;;;;;2.50;1.73;;;;;;;4.32;64.26;92430.41;2051065;70;20150;-81
2023/12/21 03:44:59;;;;;;;3.10;1.65;;;;;;;4.32;63.93;92436.00;2050714;70;20657;-83
2023/12/21 03:47:24;;;;;;;4.68;1.63;;;;;;;4.43;63.57;92434.00;2051531;70;20152;-82
2023/12/21 03:49:50;;;;;;;2.15;1.38;;;;;;;4.34;64.33;92419.44;2050912;70;20157;-80
2023/12/21 03:52:16;;;;;;;2.00;1.50;;;;;;;4.27;64.50;92411.91;2048663;70;20150;-80
2023/12/21 03:54:42;;;;;;;3.00;1.83;;;;;;;4.33;62.67;92406.81;2050524;70;20143;-83
2023/12/21 03:57:08;;;;;;;1.88;1.40;;;;;;;4.37;63.44;92381.31;2048437;70;20673;-83
2023/12/21 03:59:35;;;;;;;1.77;1.30;;;;;;;4.41;63.87;92383.69;2048326;70;20155;-82
2023/12/21 04:02:03;;;;;;;2.63;1.70;;;;;;;4.35;64.01;92381.13;2052161;70;20596;-79
2023/12/21 04:04:32;;;;;;;2.58;1.77;;;;;;;4.25;64.99;92369.94;2052368;70;20169;-81
2023/12/21 04:06:58;;;;;;;4.05;2.60;;;;;;;3.96;65.52;92360.69;2051163;70;20181;-81
2023/12/21 04:09:28;;;;;;;3.45;1.90;;;;;;;4.15;64.04;92363.59;2057221;70;20099;-80
2023/12/21 04:11:54;;;;;;;2.25;1.45;;;;;;;4.24;62.36;92353.81;2049996;70;20147;-81
2023/12/21 04:14:19;;;;;;;3.03;1.80;;;;;;;4.15;61.57;92352.44;2053995;70;20166;-82
2023/12/21 04:16:48;;;;;;;3.90;1.35;;;;;;;4.24;61.95;92348.97;2057462;69;20244;-80
2023/12/21 04:19:14;;;;;;;3.50;1.73;;;;;;;4.04;62.14;92348.13;2051571;70;20150;-82
2023/12/21 04:21:41;;;;;;;2.25;1.40;;;;;;;4.24;62.73;92376.09;2052768;70;20196;-80
2023/12/21 04:24:08;;;;;;;1.70;1.35;;;;;;;4.23;62.35;92378.16;2055060;69;20162;-80
2023/12/21 04:26:35;;;;;;;4.57;1.58;;;;;;;4.30;63.08;92368.94;2055131;70;20138;-80
2023/12/21 04:29:02;;;;;;;1.50;1.30;;;;;;;4.31;63.03;92364.88;2054938;69;20146;-83
2023/12/21 04:31:28;;;;;;;3.25;1.60;;;;;;;4.26;63.00;92363.06;2052821;69;20162;-83
2023/12/21 04:33:55;;;;;;;3.70;1.55;;;;;;;4.30;63.61;92338.28;2047315;70;20221;-82
2023/12/21 04:36:23;;;;;;;4.38;2.20;;;;;;;3.94;64.69;92338.22;2054701;70;20154;-82
2023/12/21 04:38:49;;;;;;;3.70;2.03;;;;;;;4.01;64.43;92352.06;2054559;70;20157;-81
2023/12/21 04:41:16;;;;;;;3.83;2.42;;;;;;;3.91;65.14;92339.41;2052758;69;20139;-82
2023/12/21 04:43:45;;;;;;;6.20;1.75;;;;;;;4.07;65.39;92324.69;2055079;70;20173;-83
2023/12/21 04:46:10;;;;;;;4.45;1.90;;;;;;;4.08;62.36;92311.50;2051294;70;20168;-80
2023/12/21 04:48:37;;;;;;;3.67;2.00;;;;;;;4.24;61.26;92326.69;2054982;70;20581;-81
2023/12/21 04:51:02;;;;;;;3.53;1.50;;;;;;;4.21;63.03;92313.91;2051580;70;20160;-82
2023/12/21 04:53:28;;;;;;;3.85;1.42;;;;;;;4.27;63.85;92331.09;2054082;70;20521;-81
2023/12/21 04:55:54;;;;;;;3.63;1.33;;;;;;;4.19;63.57;92327.69;2051440;70;20143;-80
2023/12/21 04:58:20;;;;;;;4.80;2.10;;;;;;;3.84;64.56;92327.03;2051409;70;20202;-82
2023/12/21 05:00:50;;;;;;;5.15;2.03;;;;;;;3.91;64.47;92322.69;2052478;70;20596;-84
2023/12/21 05:03:20;;;;;;;4.77;2.30;;;;;;;3.98;64.42;92311.44;2054519;70;20261;-83
2023/12/21 05:05:50;;;;;;;3.80;1.77;;;;;;;3.88;64.49;92293.19;2051469;70;20145;-82
2023/12/21 05:08:17;;;;;;;3.67;1.88;;;;;;;4.02;64.35;92286.69;2051482;70;20150;-83
2023/12/21 05:10:42;;;;;;;4.72;1.88;;;;;;;4.12;64.34;92294.34;2052171;70;20184;-83
2023/12/21 05:13:08;;;;;;;2.95;2.00;;;;;;;3.84;64.41;92315.88;2051151;70;20146;-82
2023/12/21 05:15:34;;;;;;;7.50;4.28;;;;;;;3.85;64.45;92319.41;2053767;70;20696;-83
2023/12/21 05:18:01;;;;;;;7.82;4.43;;;;;;;4.01;64.46;92315.13;2051352;70;20162;-83
2023/12/21 05:20:27;;;;;;;5.53;3.33;;;;;;;4.11;64.52;92329.09;2051515;70;20203;-83
2023/12/21 05:22:53;;;;;;;5.90;3.00;;;;;;;4.04;65.04;92330.69;2052581;70;20636;-84
2023/12/21 05:25:18;;;;;;;4.90;2.13;;;;;;;3.93;65.86;92308.91;2052359;70;20146;-82
2023/12/21 05:27:44;;;;;;;3.42;1.50;;;;;;;3.91;65.21;92312.28;2055198;70;20181;-82
2023/12/21 05:30:10;;;;;;;4.07;1.50;;;;;;;3.98;62.72;92302.34;2051603;70;20153;-83
2023/12/21 05:32:36;;;;;;;6.30;1.60;;;;;;;4.08;64.18;92308.72;2054564;70;20186;-84
2023/12/21 05:35:04;;;;;;;8.93;1.65;;;;;;;4.14;64.40;92288.94;2053678;70;20269;-81
2023/12/21 05:37:29;;;;;;;9.30;3.85;;;;;;;3.85;64.85;92288.78;2057597;70;20582;-82
2023/12/21 05:39:55;;;;;;;9.82;4.00;;;;;;;3.96;64.33;92302.19;2053953;70;20229;-82
2023/12/21 05:42:20;;;;;;;8.63;4.45;;;;;;;3.98;64.94;92288.41;2054949;70;20146;-80
2023/12/21 05:44:46;;;;;;;5.88;2.00;;;;;;;3.95;64.18;92278.44;2053481;70;20245;-81
2023/12/21 05:47:13;;;;;;;4.53;1.73;;;;;;;4.02;61.95;92260.88;2051202;70;20146;-83
2023/12/21 05:49:40;;;;;;;4.05;1.20;;;;;;;4.12;63.65;92261.66;2052559;70;20150;-81
2023/12/21 05:52:05;;;;;;;3.60;1.27;;;;;;;4.17;64.49;92263.47;2048952;70;20157;-82
2023/12/21 05:54:31;;;;;;;10.80;1.90;;;;;;;4.08;64.39;92261.38;2053318;70;20146;-82
2023/12/21 05:56:58;;;;;;;4.68;2.20;;;;;;;4.04;62.65;92261.06;2054886;70;20153;-81
2023/12/21 05:59:23;;;;;;;5.57;2.40;;;;;;;4.12;63.05;92283.22;2054836;70;20216;-81
2023/12/21 06:01:49;;;;;;;3.45;1.98;;;;;;;4.21;63.80;92279.72;2054615;70;20173;-81
2023/12/21 06:04:14;;;;;;;2.78;1.60;;;;;;;4.03;64.21;92277.03;2050416;70;20138;-81
2023/12/21 06:06:45;;;;;;;4.35;2.10;;;;;;;3.97;61.73;92284.16;2054976;70;20212;-81
2023/12/21 06:09:11;;;;;;;3.90;2.08;;;;;;;4.00;60.62;92289.31;2054346;70;20174;-81
2023/12/21 06:11:36;;;;;;;4.28;1.92;;;;;;;4.06;60.21;92287.00;2053945;70;20189;-82
2023/12/21 06:14:02;;;;;;;4.15;1.90;;;;;;;4.21;62.03;92282.53;2054487;70;20225;-81
2023/12/21 06:16:28;;;;;;;3.20;2.15;;;;;;;4.24;62.75;92282.09;2051173;70;20617;-81
2023/12/21 06:18:55;;;;;;;3.70;2.00;;;;;;;4.26;62.95;92278.72;2050968;70;20142;-81
2023/12/21 06:21:23;;;;;;;10.45;4.35;;;;;;;4.12;62.15;92277.63;2051105;70;20138;-81
2023/12/21 06:23:49;;;;;;;9.02;3.92;;;;;;;4.26;62.36;92276.69;2049088;70;20208;-83
2023/12/21 06:26:15;;;;;;;11.00;5.15;;;;;;;4.21;62.80;92272.09;2052190;70;20166;-81
2023/12/21 06:28:40;;;;;;;10.55;4.00;;;;;;;4.27;63.05;92241.22;2051118;70;20657;-83
2023/12/21 06:31:06;;;;;;;8.13;4.15;;;;;;;4.29;63.63;92233.72;2052905;70;20146;-83
2023/12/21 06:33:32;;;;;;;5.22;1.90;;;;;;;4.31;61.28;92236.69;2054729;70;20157;-82
2023/12/21 06:35:59;;;;;;;4.72;1.92;;;;;;;4.32;61.90;92226.25;2054518;70;20604;-82
2023/12/21 06:38:26;;;;;;;3.90;1.73;;;;;;;4.22;61.74;92226.22;2054887;70;20186;-82
2023/12/21 06:40:52;;;;;;;2.92;1.50;;;;;;;4.42;61.96;92243.00;2052084;70;20146;-82
2023/12/21 06:43:19;;;;;;;4.22;1.88;;;;;;;4.34;62.46;92249.44;2051430;70;20158;-83
2023/12/21 06:45:49;;;;;;;14.82;10.15;;;;;;;4.00;62.52;92246.81;2047968;70;20151;-83
2023/12/21 06:48:15;;;;;;;65.82;39.30;;;;;;;4.09;61.12;92229.41;2051348;70;20130;-83
2023/12/21 06:50:40;;;;;;;6.85;2.72;;;;;;;4.06;60.07;92217.34;2047853;70;20166;-83
2023/12/21 06:53:06;;;;;;;4.43;2.20;;;;;;;4.24;61.22;92220.06;2051378;70;20146;-82
2023/12/21 06:55:31;;;;;;;7.13;1.70;;;;;;;4.36;60.75;92215.41;2052013;70;20224;-82
2023/12/21 06:57:58;;;;;;;5.95;1.92;;;;;;;4.40;61.58;92210.16;2054565;70;20134;-81
2023/12/21 07:00:24;;;;;;;3.20;1.85;;;;;;;4.34;61.17;92224.34;2052606;70;20142;-83
2023/12/21 07:02:50;;;;;;;9.60;4.82;;;;;;;4.43;61.49;92234.06;2055246;70;20161;-83
2023/12/21 07:05:17;;;;;;;5.43;3.60;;;;;;;4.32;61.83;92227.00;2053359;70;20193;-82
2023/12/21 07:07:43;;;;;;;8.25;3.70;;;;;;;4.30;61.87;92240.75;2054520;70;20146;-81
2023/12/21 07:10:10;;;;;;;5.25;2.20;;;;;;;4.25;62.97;92244.56;2057305;69;20154;-82
2023/12/21 07:12:35;;;;;;;3.70;2.30;;;;;;;4.19;61.72;92235.75;2055805;69;20211;-82
2023/12/21 07:15:04;;;;;;;2.53;1.70;;;;;;;4.26;60.32;92229.31;2055121;70;20145;-84
2023/12/21 07:17:31;;;;;;;3.80;1.80;;;;;;;4.27;61.33;92211.28;2055522;70;20146;-83
2023/12/21 07:19:56;;;;;;;4.47;2.20;;;;;;;4.39;60.26;92205.16;2053926;70;20151;-83
2023/12/21 07:22:22;;;;;;;5.22;2.10;;;;;;;4.46;60.36;92213.38;2054076;70;20173;-82
2023/12/21 07:24:47;;;;;;;3.63;2.30;;;;;;;4.33;59.46;92202.63;2052219;70;20182;-82
2023/12/21 07:27:15;;;;;;;5.53;3.10;;;;;;;4.39;61.06;92188.41;2052137;70;20229;-83
2023/12/21 07:29:44;;;;;;;3.55;1.70;;;;;;;4.55;59.91;92189.66;2051662;70;20641;-83
2023/12/21 07:32:10;;;;;;;5.15;1.98;;;;;;;4.54;59.87;92210.47;2052779;70;20184;-82
2023/12/21 07:34:36;;;;;;;3.17;2.30;;;;;;;4.54;58.77;92205.63;2048764;70;20147;-82
2023/12/21 07:37:01;;;;;;;4.43;2.10;;;;;;;4.50;60.07;92210.91;2051644;70;20596;-83
2023/12/21 07:39:27;;;;;;;3.75;1.85;;;;;;;4.56;59.08;92191.84;2053255;70;20149;-82
2023/12/21 07:41:53;;;;;;;2.50;1.80;;;;;;;4.83;58.73;92207.72;2050876;70;20173;-82
2023/12/21 07:44:18;;;;;;;3.50;2.00;;;;;;;4.75;58.54;92199.50;2053877;70;20154;-80
2023/12/21 07:46:44;;;;;;;2.70;2.03;;;;;;;4.87;59.52;92190.56;2055567;69;20173;-84
2023/12/21 07:49:10;;;;;;;12.38;4.15;;;;;;;4.79;59.60;92177.47;2055328;69;20540;-84
2023/12/21 07:51:35;;;;;;;15.25;5.07;;;;;;;4.93;59.68;92172.19;2055014;70;20233;-83
2023/12/21 07:54:01;;;;;;;5.03;2.20;;;;;;;4.84;58.59;92176.44;2053683;70;20244;-83
2023/12/21 07:56:27;;;;;;;6.13;2.60;;;;;;;4.80;57.81;92159.41;2054393;70;20153;-84
2023/12/21 07:58:52;;;;;;;5.03;3.08;;;;;;;4.67;57.67;92147.97;2054529;69;20189;-80
2023/12/21 08:01:19;;;;;;;3.47;2.30;;;;;;;4.97;58.40;92160.59;2051319;70;20157;-82
2023/12/21 08:03:45;;;;;;;5.45;2.33;;;;;;;5.05;59.27;92144.47;2051305;70;20637;-81
2023/12/21 08:06:21;;;;;;;3.55;1.80;;;;;;;4.98;58.33;92126.53;2054824;70;20260;-80
2023/12/21 08:08:46;;;;;;;5.97;3.08;;;;;;;4.84;57.06;92131.09;2054227;70;20229;-82
2023/12/21 08:11:13;;;;;;;4.38;2.40;;;;;;;5.09;57.94;92128.75;2054590;69;20160;-81
2023/12/21 08:13:38;;;;;;;5.95;1.98;;;;;;;5.20;57.84;92140.63;2054984;70;20197;-82
2023/12/21 08:16:04;;;;;;;3.08;1.80;;;;;;;5.30;57.36;92133.69;2050995;70;20514;-82
2023/12/21 08:18:31;;;;;;;5.43;2.00;;;;;;;5.21;56.88;92122.53;2054093;69;20174;-83
2023/12/21 08:20:56;;;;;;;3.67;1.80;;;;;;;5.21;56.96;92117.69;2054483;70;20613;-85
2023/12/21 08:23:22;;;;;;;2.83;1.85;;;;;;;5.16;56.06;92110.38;2054486;70;20152;-81
2023/12/21 08:25:52;;;;;;;5.43;1.80;;;;;;;5.16;55.42;92099.19;2054483;69;20156;-81
2023/12/21 08:28:19;;;;;;;2.55;1.98;;;;;;;5.45;55.68;92109.56;2054540;70;20157;-82
2023/12/21 08:30:44;;;;;;;4.60;2.03;;;;;;;5.40;55.64;92083.41;2054337;70;20218;-81
2023/12/21 08:33:10;;;;;;;4.50;2.40;;;;;;;5.47;55.35;92062.97;2051828;70;20312;-81
2023/12/21 08:35:36;;;;;;;4.07;2.30;;;;;;;5.60;54.83;92062.50;2054875;70;20211;-80
2023/12/21 08:38:03;;;;;;;4.57;2.38;;;;;;;5.71;54.97;92069.50;2055239;70;20169;-79
2023/12/21 08:40:28;;;;;;;8.82;2.30;;;;;;;5.59;55.72;92035.91;2055314;70;20157;-81
2023/12/21 08:42:54;;;;;;;3.88;2.30;;;;;;;5.70;54.15;92040.09;2055584;70;20145;-82
2023/12/21 08:45:21;;;;;;;7.00;2.30;;;;;;;5.67;55.07;92076.88;2055971;70;20327;-79
2023/12/21 08:47:47;;;;;;;4.40;2.15;;;;;;;5.68;54.70;92058.78;2055367;70;20241;-82
2023/12/21 08:50:15;;;;;;;5.68;2.20;;;;;;;5.82;55.57;92071.66;2051687;70;20183;-84
2023/12/21 08:52:41;;;;;;;3.47;1.92;;;;;;;5.73;56.03;92066.13;2051685;70;20201;-82
2023/12/21 08:55:08;;;;;;;2.58;1.80;;;;;;;5.80;55.25;92059.59;2057414;69;20153;-83
2023/12/21 08:57:36;;;;;;;3.83;2.00;;;;;;;5.70;54.54;92051.28;2055393;70;20150;-83
2023/12/21 09:00:13;;;;;;;3.65;2.08;;;;;;;5.87;53.33;92030.75;2051994;70;20620;-83
2023/12/21 09:02:40;;;;;;;3.25;1.90;;;;;;;5.93;53.60;92030.47;2055298;69;20229;-83
2023/12/21 09:05:06;;;;;;;9.52;3.80;;;;;;;5.96;54.52;92026.47;2055396;70;20296;-82
2023/12/21 09:07:34;;;;;;;9.10;3.50;;;;;;;6.05;54.20;92034.06;2057416;69;20197;-83
2023/12/21 09:10:00;;;;;;;6.93;3.17;;;;;;;6.27;54.95;92035.53;2055395;69;20245;-84
2023/12/21 09:12:25;;;;;;;5.57;2.30;;;;;;;6.13;57.30;92029.00;2055569;70;20164;-82
2023/12/21 09:14:52;;;;;;;6.55;2.90;;;;;;;6.05;54.44;92022.91;2055261;70;20177;-83
2023/12/21 09:17:18;;;;;;;6.70;3.15;;;;;;;6.07;54.68;92037.00;2051553;70;20145;-82
2023/12/21 09:19:44;;;;;;;6.88;3.40;;;;;;;6.38;55.44;92053.69;2051353;70;20613;-83
2023/12/21 09:22:10;;;;;;;12.20;3.53;;;;;;;6.20;55.41;92024.56;2055199;70;20145;-83
2023/12/21 09:24:38;;;;;;;8.98;3.20;;;;;;;6.18;54.23;92010.44;2055275;69;20494;-85
2023/12/21 09:27:04;;;;;;;7.28;2.97;;;;;;;6.17;54.83;91992.22;2055174;70;20158;-83
2023/12/21 09:29:30;;;;;;;5.93;3.80;;;;;;;6.29;53.51;91982.56;2055124;70;20600;-83
2023/12/21 09:31:59;;;;;;;5.63;3.40;;;;;;;6.36;54.13;91981.59;2051492;70;20224;-82
2023/12/21 09:34:25;;;;;;;7.22;2.42;;;;;;;6.50;54.84;91970.59;2054968;70;20146;-80
2023/12/21 09:36:53;;;;;;;3.55;2.25;;;;;;;6.58;54.26;91971.09;2055000;69;20146;-84
2023/12/21 09:39:19;;;;;;;3.50;2.10;;;;;;;6.69;53.06;91977.34;2055022;69;20177;-82
2023/12/21 09:41:45;;;;;;;6.03;2.20;;;;;;;6.64;53.57;91956.78;2055098;70;20181;-82
2023/12/21 09:44:17;;;;;;;2.38;1.55;;;;;;;6.53;52.88;91977.78;2054948;70;20604;-82
2023/12/21 09:46:46;;;;;;;6.95;2.10;;;;;;;6.47;53.68;91951.50;2054183;70;20237;-81
2023/12/21 09:49:17;;;;;;;2.70;1.80;;;;;;;6.68;53.66;91961.91;2051423;70;20134;-82
2023/12/21 09:51:46;;;;;;;4.15;2.15;;;;;;;6.66;54.52;91942.94;2051670;70;20221;-82
2023/12/21 09:54:14;;;;;;;5.38;2.10;;;;;;;6.57;52.67;91933.31;2055001;70;20138;-82
2023/12/21 09:56:41;;;;;;;2.55;1.60;;;;;;;6.76;51.79;91937.25;2055306;70;20151;-81
2023/12/21 09:59:08;;;;;;;3.95;2.03;;;;;;;6.78;52.06;91926.91;2055126;70;20152;-81
2023/12/21 10:01:34;;;;;;;7.63;2.10;;;;;;;6.58;52.10;91934.03;2057301;69;20146;-82
2023/12/21 10:04:04;;;;;;;6.07;2.50;;;;;;;6.92;52.84;91926.31;2051465;70;20146;-82
2023/12/21 10:06:32;;;;;;;7.93;2.15;;;;;;;7.01;52.80;91917.81;2055093;70;20237;-82
2023/12/21 10:09:04;;;;;;;5.13;2.40;;;;;;;6.80;52.21;91913.03;2051485;70;20652;-81
2023/12/21 10:11:31;;;;;;;5.38;2.85;;;;;;;7.08;52.37;91891.66;2057277;69;20233;-81
2023/12/21 10:14:01;;;;;;;5.25;2.83;;;;;;;7.23;51.51;91895.31;2056747;70;20272;-81
2023/12/21 10:16:33;;;;;;;8.38;2.38;;;;;;;7.30;51.68;91869.88;2058295;70;20142;-82
2023/12/21 10:18:59;;;;;;;6.63;1.90;;;;;;;7.47;51.89;91843.56;2057671;69;20313;-82
2023/12/21 10:21:27;;;;;;;7.03;2.08;;;;;;;7.70;52.51;91844.81;2055000;70;20612;-82
2023/12/21 10:23:53;;;;;;;6.40;2.30;;;;;;;7.74;52.12;91823.38;2054874;70;20609;-83
2023/12/21 10:26:21;;;;;;;4.47;2.20;;;;;;;7.60;52.19;91826.09;2051301;70;20149;-82
2023/12/21 10:28:52;;;;;;;3.90;2.25;;;;;;;7.48;53.03;91841.47;2055082;70;20150;-82
2023/12/21 10:31:17;;;;;;;6.13;2.10;;;;;;;7.43;52.93;91823.00;2054871;70;20138;-83
2023/12/21 10:33:43;;;;;;;4.97;2.13;;;;;;;7.58;52.64;91834.38;2051214;70;20146;-82
2023/12/21 10:36:09;;;;;;;4.85;2.03;;;;;;;7.73;51.62;91847.13;2054930;70;20161;-82
2023/12/21 10:38:36;;;;;;;5.93;3.63;;;;;;;7.20;53.30;91832.16;2054809;70;20132;-82
2023/12/21 10:41:05;;;;;;;10.35;4.30;;;;;;;7.45;53.29;91843.41;2051546;70;20605;-83
2023/12/21 10:43:34;;;;;;;6.45;3.75;;;;;;;7.67;52.92;91835.59;2055511;70;20185;-83
2023/12/21 10:46:00;;;;;;;4.82;2.75;;;;;;;7.78;52.65;91812.41;2055418;70;20169;-83
2023/12/21 10:48:30;;;;;;;5.97;3.17;;;;;;;7.81;53.80;91804.84;2055357;70;20149;-82
2023/12/21 10:51:03;;;;;;;3.53;2.30;;;;;;;7.92;51.83;91789.31;2054482;70;20208;-83
2023/12/21 10:53:29;;;;;;;24.00;8.25;;;;;;;7.81;52.54;91805.56;2055384;70;20602;-83
2023/12/21 10:55:58;;;;;;;9.38;3.67;;;;;;;7.79;52.68;91805.47;2055383;70;20158;-82
2023/12/21 10:58:29;;;;;;;5.78;2.47;;;;;;;7.82;53.25;91792.28;2055410;70;20156;-83
2023/12/21 11:00:55;;;;;;;3.83;2.05;;;;;;;7.75;51.99;91765.28;2055477;70;20566;-83
2023/12/21 11:03:21;;;;;;;4.85;1.83;;;;;;;8.04;52.01;91767.56;2055350;70;20153;-83
2023/12/21 11:05:47;;;;;;;3.85;2.40;;;;;;;7.97;54.13;91762.97;2051665;70;20141;-82
2023/12/21 11:08:13;;;;;;;7.82;2.90;;;;;;;7.94;52.94;91759.34;2048233;70;20225;-83
2023/12/21 11:10:39;;;;;;;4.22;2.55;;;;;;;7.79;53.15;91776.69;2051719;70;20154;-82
2023/12/21 11:13:04;;;;;;;5.13;2.13;;;;;;;7.89;54.31;91771.69;2051174;70;20142;-83
2023/12/21 11:15:30;;;;;;;5.25;1.80;;;;;;;7.83;56.28;91765.72;2052004;70;20222;-82
2023/12/21 11:18:04;;;;;;;5.22;1.90;;;;;;;7.82;55.58;91755.84;2051726;69;20142;-83
2023/12/21 11:20:36;;;;;;;3.30;1.50;;;;;;;8.15;55.17;91777.97;2051553;70;20175;-82
2023/12/21 11:23:05;;;;;;;8.00;3.90;;;;;;;7.91;55.48;91791.38;2051710;70;20146;-82
2023/12/21 11:25:32;;;;;;;5.63;2.55;;;;;;;8.01;55.50;91796.84;2051715;69;20185;-82
2023/12/21 11:28:00;;;;;;;4.50;2.10;;;;;;;7.81;56.01;91774.75;2053968;70;20154;-82
2023/12/21 11:30:35;;;;;;;5.18;2.30;;;;;;;7.84;57.75;91767.91;2051670;70;20201;-82
2023/12/21 11:33:09;;;;;;;3.50;2.03;;;;;;;8.00;57.33;91787.69;2051807;70;20180;-82
2023/12/21 11:35:36;;;;;;;7.32;2.80;;;;;;;7.80;57.32;91792.19;2050963;70;20166;-82
2023/12/21 11:38:06;;;;;;;7.53;2.22;;;;;;;7.96;57.09;91762.25;2051620;70;20139;-82
2023/12/21 11:40:34;;;;;;;2.97;1.45;;;;;;;8.39;55.98;91744.97;2051639;69;20146;-82